Portada
METAR-TAF:

METAR-TAF

Aeropuertos :

Villamontes, Bolivia

latitud: 21-15S, longitud: 063-27W, altitud: 398 m

Observación

El informe se hizo hace 18 horas y 55 minutos, a las 21:00 UTC
Viento 10 kt del norte con ráfagas de 22 kt
Temperatura 35°C
Humedad 47%
Presión 1004 hPa
Visibilidad 10 km o más

METAR: SLVM 142100Z 36010G22KT 9999 NSC 35/22 Q1004

Hora: 11:55 (15:55 UTC)


TAF: falta

Observaciones y pronósticos meteorológicos de más de 4000 aeropuertos (mensajes METAR y TAF).

Los puntos amarillos y rojos representan las estaciones disponibles.

Ponga el ratón en el punto deseado para ver el nombre de la estación.

Haga clic para ver las observaciones y los pronósticos meteorológicos.

Para cambiar el mapa : haga clic en los botones verdes con una cruz de color negro para hacer un zoom, en el botón verde con un guión para alejar o en las flechas verdes para mapas adyacentes.


METAR-TAF: